Sagerton, Texas
Current Conditions -  °F | °C
As of 7:58 PM on Monday 22 Dec 2014 (Local Time) from KDYS Reporting Station
Few Clouds Few Clouds  
Wind Chill: 54°   Ceiling: Unl
Heat Index: 54°   Visibility: 10mi
Dew Point: 36°   Wind: 5mph
Humidity: 51%   Direction: 110°ESE
Pressure: 29.67"   Gusts: NA
Location:  33.036°N, 99.8727°W
Report Text: KDYS 230158Z AUTO 11004KT 10SM FEW200 12/02 A2967 RMK AO2 SLP033 T01210023 $
Loading
Personal Weather Stations






























Interactive Weather Map New forecast layout! Learn more

10-Day Weather Forecast

Advertisements
Track Severe Weather on mobile